Time;durP1;ratioP1;P1;durP2;ratioP2;P2;SDS_P1;SDS_P2;PMS_P1;PMS_P2;Temp;Humidity;BMP_temperature;BMP_pressure;BME280_temperature;BME280_humidity;BME280_pressure;Samples;Min_cycle;Max_cycle;Signal;HPM_P1;HPM_P2
2021/07/19 00:01:57;;;;;;;10.40;4.75;;;;;;;18.39;65.95;101827.75;5073820;28;20024;-49
2021/07/19 00:04:23;;;;;;;9.02;4.47;;;;;;;18.48;65.52;101828.00;5076600;28;20024;-50
2021/07/19 00:06:49;;;;;;;8.32;4.10;;;;;;;18.54;64.64;101829.63;5078181;28;20039;-51
2021/07/19 00:09:15;;;;;;;10.23;3.97;;;;;;;18.48;64.58;101830.72;5077283;28;20038;-50
2021/07/19 00:11:41;;;;;;;10.23;3.83;;;;;;;18.49;64.26;101831.53;5078817;28;20139;-50
2021/07/19 00:14:07;;;;;;;11.40;3.90;;;;;;;18.48;64.31;101828.00;5075107;28;20063;-49
2021/07/19 00:16:33;;;;;;;10.07;4.13;;;;;;;18.45;64.10;101825.84;5076011;28;20028;-50
2021/07/19 00:18:59;;;;;;;22.38;4.18;;;;;;;18.42;64.00;101829.94;5075031;28;20346;-50
2021/07/19 00:21:25;;;;;;;11.18;3.72;;;;;;;18.37;63.64;101826.41;5074017;28;20024;-52
2021/07/19 00:23:51;;;;;;;10.07;3.85;;;;;;;18.38;63.53;101826.16;5076016;28;20027;-51
2021/07/19 00:26:19;;;;;;;9.55;4.30;;;;;;;18.26;63.48;101828.31;5072766;28;20036;-49
2021/07/19 00:28:46;;;;;;;7.50;3.95;;;;;;;18.23;63.00;101830.78;5077079;28;20031;-51
2021/07/19 00:31:11;;;;;;;8.75;3.78;;;;;;;18.18;63.53;101826.16;5078238;28;20413;-50
2021/07/19 00:33:37;;;;;;;14.27;3.90;;;;;;;18.07;63.35;101838.09;5076198;28;20032;-52
2021/07/19 00:36:03;;;;;;;11.90;4.20;;;;;;;17.92;62.21;101829.97;5078431;28;21891;-50
2021/07/19 00:38:28;;;;;;;10.50;3.58;;;;;;;18.05;62.31;101824.81;5075455;28;20032;-49
2021/07/19 00:40:53;;;;;;;7.80;3.30;;;;;;;18.00;61.98;101826.72;5074849;28;20058;-49
2021/07/19 00:43:19;;;;;;;15.18;3.80;;;;;;;18.06;61.68;101826.44;5079902;28;20386;-52
2021/07/19 00:45:44;;;;;;;9.40;3.45;;;;;;;17.98;60.98;101826.19;5074610;28;20154;-49
2021/07/19 00:48:10;;;;;;;8.48;3.30;;;;;;;17.90;60.85;101835.66;5076537;28;20121;-51
2021/07/19 00:50:39;;;;;;;8.05;3.25;;;;;;;17.91;60.36;101833.75;5072169;28;20036;-50
2021/07/19 00:53:07;;;;;;;13.55;3.95;;;;;;;17.84;60.05;101838.66;5070276;28;20085;-49
2021/07/19 00:55:38;;;;;;;10.80;3.53;;;;;;;17.87;60.04;101836.19;5072401;28;21225;-49
2021/07/19 00:58:06;;;;;;;8.77;3.17;;;;;;;17.87;59.46;101836.19;5078339;28;20382;-49
2021/07/19 01:00:37;;;;;;;8.82;3.17;;;;;;;17.88;59.43;101837.00;5075968;28;20055;-49
2021/07/19 01:03:04;;;;;;;12.05;3.10;;;;;;;17.86;59.13;101844.59;5073907;28;20055;-51
2021/07/19 01:05:30;;;;;;;11.07;3.50;;;;;;;17.71;59.38;101842.69;5070074;28;20024;-50
2021/07/19 01:07:57;;;;;;;12.20;3.58;;;;;;;17.51;60.00;101848.84;5073735;28;20033;-49
2021/07/19 01:10:24;;;;;;;10.85;3.50;;;;;;;17.62;60.02;101852.41;5072418;28;20020;-49
2021/07/19 01:12:55;;;;;;;11.85;4.10;;;;;;;17.63;59.45;101844.00;5077532;28;20036;-50
2021/07/19 01:15:26;;;;;;;11.60;3.60;;;;;;;17.67;59.61;101849.72;5076776;28;20028;-51
2021/07/19 01:17:53;;;;;;;9.60;3.95;;;;;;;17.61;60.40;101843.47;5069352;28;20027;-50
2021/07/19 01:20:30;;;;;;;10.98;3.42;;;;;;;17.54;60.70;101848.31;5072813;28;20040;-49
2021/07/19 01:23:27;;;;;;;9.98;3.53;;;;;;;17.42;59.96;101853.19;5072765;28;20020;-51
2021/07/19 01:26:11;;;;;;;9.60;3.95;;;;;;;17.61;59.92;101840.75;5069771;28;20082;-52
2021/07/19 01:28:38;;;;;;;7.90;3.03;;;;;;;17.67;59.75;101836.16;5072122;28;20107;-49
2021/07/19 01:31:09;;;;;;;12.68;3.25;;;;;;;17.65;59.33;101839.13;5075439;28;20024;-52
2021/07/19 01:33:36;;;;;;;8.85;2.92;;;;;;;17.57;59.10;101842.34;5076311;28;20034;-49
2021/07/19 01:36:04;;;;;;;7.82;2.75;;;;;;;17.50;58.88;101839.09;5075040;28;20504;-50
2021/07/19 01:38:30;;;;;;;15.50;3.45;;;;;;;17.34;59.14;101838.25;5074450;28;20024;-50
2021/07/19 01:40:56;;;;;;;10.38;3.28;;;;;;;17.27;59.29;101843.13;5075320;28;20358;-49
2021/07/19 01:43:24;;;;;;;12.20;3.28;;;;;;;17.06;59.73;101858.47;5071735;28;20439;-49
2021/07/19 01:45:50;;;;;;;10.25;3.70;;;;;;;16.81;60.46;101855.63;5073513;28;20397;-49
2021/07/19 01:48:16;;;;;;;9.40;3.10;;;;;;;16.83;60.60;101869.72;5072584;28;20368;-49
2021/07/19 01:50:42;;;;;;;9.70;3.40;;;;;;;16.75;60.63;101860.22;5074173;28;20027;-50
2021/07/19 01:53:10;;;;;;;11.70;3.17;;;;;;;16.61;61.05;101859.81;5074105;28;20031;-50
2021/07/19 01:55:36;;;;;;;10.30;3.38;;;;;;;16.53;61.42;101862.22;5074764;28;20044;-49
2021/07/19 01:58:03;;;;;;;9.23;3.47;;;;;;;16.53;61.58;101859.50;5071407;28;20032;-52
2021/07/19 02:00:30;;;;;;;9.85;3.17;;;;;;;16.48;62.03;101864.84;5075213;28;20115;-49
2021/07/19 02:02:55;;;;;;;9.40;3.72;;;;;;;16.45;62.04;101868.91;5074728;28;20016;-51
2021/07/19 02:05:22;;;;;;;10.95;3.45;;;;;;;16.40;62.71;101868.88;5074598;28;20024;-49
2021/07/19 02:07:51;;;;;;;11.52;3.72;;;;;;;15.99;64.29;101865.84;5074754;28;20398;-49
2021/07/19 02:10:17;;;;;;;11.27;3.90;;;;;;;15.90;64.67;101870.09;5075257;28;20378;-48
2021/07/19 02:12:45;;;;;;;12.80;4.50;;;;;;;15.90;64.84;101871.97;5073132;28;20096;-49
2021/07/19 02:15:19;;;;;;;14.05;3.47;;;;;;;15.76;65.62;101871.56;5071387;28;20044;-52
2021/07/19 02:17:54;;;;;;;13.30;3.70;;;;;;;15.63;66.30;101885.50;5071151;28;21780;-49
2021/07/19 02:20:21;;;;;;;13.20;4.00;;;;;;;15.49;67.13;101878.81;5073883;28;20085;-49
2021/07/19 02:22:46;;;;;;;14.40;3.88;;;;;;;15.40;67.60;101884.66;5071996;28;20019;-51
2021/07/19 02:25:14;;;;;;;12.63;3.95;;;;;;;15.31;67.84;101891.59;5073216;28;20056;-49
2021/07/19 02:27:46;;;;;;;12.70;3.50;;;;;;;15.29;67.69;101893.72;5073685;28;20047;-49
2021/07/19 02:30:16;;;;;;;11.98;3.75;;;;;;;15.28;67.99;101889.38;5074103;28;20043;-49
2021/07/19 02:32:44;;;;;;;16.13;4.00;;;;;;;15.21;68.27;101886.03;5073050;28;20035;-50
2021/07/19 02:35:12;;;;;;;12.90;3.88;;;;;;;15.19;68.45;101890.88;5073448;28;20113;-49
2021/07/19 02:37:39;;;;;;;14.20;4.00;;;;;;;15.25;68.22;101886.34;5078098;28;20035;-49
2021/07/19 02:40:06;;;;;;;11.75;3.55;;;;;;;15.24;68.49;101887.41;5072100;28;20028;-49
2021/07/19 02:42:38;;;;;;;11.27;4.28;;;;;;;15.07;69.80;101880.19;5073748;28;20028;-50
2021/07/19 02:45:09;;;;;;;11.10;4.05;;;;;;;15.06;69.79;101883.97;5074604;28;20024;-52
2021/07/19 02:47:35;;;;;;;15.95;4.00;;;;;;;15.08;69.50;101883.72;5074120;28;20028;-50
2021/07/19 02:50:02;;;;;;;11.98;3.72;;;;;;;15.10;69.26;101887.00;5073257;28;20074;-49
2021/07/19 02:52:28;;;;;;;13.25;4.13;;;;;;;15.03;69.57;101892.56;5069830;28;20028;-51
2021/07/19 02:54:54;;;;;;;9.95;4.13;;;;;;;15.01;69.77;101896.59;5071100;28;20032;-49
2021/07/19 02:57:20;;;;;;;11.38;4.78;;;;;;;14.82;70.69;101904.97;5076975;28;20028;-50
2021/07/19 02:59:45;;;;;;;11.90;4.05;;;;;;;14.57;72.22;101901.91;5073591;28;20051;-48
2021/07/19 03:02:12;;;;;;;11.02;4.13;;;;;;;14.61;71.73;101896.81;5071791;28;20178;-48
2021/07/19 03:04:40;;;;;;;17.45;4.45;;;;;;;14.69;71.14;101894.50;5076144;28;20023;-51
2021/07/19 03:07:06;;;;;;;11.82;4.35;;;;;;;14.63;71.85;101892.81;5070532;28;20035;-50
2021/07/19 03:09:37;;;;;;;12.10;4.45;;;;;;;14.64;71.96;101891.75;5070766;28;20379;-49
2021/07/19 03:12:06;;;;;;;14.02;4.20;;;;;;;14.58;72.70;101898.13;5069245;28;20370;-50
2021/07/19 03:14:35;;;;;;;11.38;4.13;;;;;;;14.67;71.97;101907.44;5074881;28;20035;-51
2021/07/19 03:17:02;;;;;;;14.57;4.63;;;;;;;14.39;74.37;101902.94;5066922;28;20046;-49
2021/07/19 03:19:28;;;;;;;10.63;4.13;;;;;;;14.27;75.29;101906.75;5072887;28;20441;-49
2021/07/19 03:21:58;;;;;;;15.23;4.30;;;;;;;14.16;76.13;101913.84;5071580;28;20077;-49
2021/07/19 03:24:25;;;;;;;16.60;4.90;;;;;;;14.16;76.27;101903.88;5074591;28;20032;-49
2021/07/19 03:26:51;;;;;;;19.23;4.75;;;;;;;14.25;75.49;101908.91;5070526;28;20064;-49
2021/07/19 03:29:18;;;;;;;14.95;4.68;;;;;;;14.32;75.29;101906.84;5072506;28;20051;-49
2021/07/19 03:31:44;;;;;;;13.73;4.43;;;;;;;14.30;75.16;101907.09;5071178;28;20131;-49
2021/07/19 03:34:12;;;;;;;17.00;5.07;;;;;;;14.27;75.79;101907.59;5073581;28;20074;-49
2021/07/19 03:36:38;;;;;;;13.18;4.40;;;;;;;14.15;76.93;101904.13;5073782;28;20054;-48
2021/07/19 03:39:06;;;;;;;15.80;4.75;;;;;;;14.15;76.83;101901.44;5073826;28;20040;-49
2021/07/19 03:41:32;;;;;;;18.52;5.53;;;;;;;14.32;75.91;101909.53;5071767;28;20082;-49
2021/07/19 03:43:59;;;;;;;11.32;4.90;;;;;;;14.24;76.81;101912.66;5072946;28;20036;-49
2021/07/19 03:46:25;;;;;;;17.55;4.57;;;;;;;14.21;77.25;101909.38;5070079;28;20051;-49
2021/07/19 03:48:52;;;;;;;14.23;4.78;;;;;;;14.24;77.44;101923.44;5075990;28;20090;-50
2021/07/19 03:51:20;;;;;;;12.60;4.95;;;;;;;14.34;76.74;101918.19;5072532;28;20032;-49
2021/07/19 03:53:45;;;;;;;11.43;4.72;;;;;;;14.33;76.90;101916.56;5069879;28;20024;-50
2021/07/19 03:56:11;;;;;;;17.67;4.90;;;;;;;14.34;76.92;101918.19;5072642;28;20279;-49
2021/07/19 03:58:37;;;;;;;18.58;5.05;;;;;;;14.39;76.64;101921.81;5072570;28;20013;-49
2021/07/19 04:01:04;;;;;;;17.25;5.15;;;;;;;14.25;77.82;101922.38;5069549;28;20081;-48
2021/07/19 04:03:44;;;;;;;14.07;5.22;;;;;;;14.41;76.61;101924.25;5071651;28;20038;-48
2021/07/19 04:06:14;;;;;;;25.08;6.07;;;;;;;14.28;77.45;101924.56;5069609;28;20017;-50
2021/07/19 04:08:41;;;;;;;14.52;4.35;;;;;;;14.52;76.25;101921.50;5075353;28;20020;-49
2021/07/19 04:11:08;;;;;;;16.83;4.72;;;;;;;14.57;76.33;101925.34;5073757;28;20020;-49
2021/07/19 04:13:33;;;;;;;16.50;5.20;;;;;;;14.61;76.05;101921.91;5071871;28;20034;-48
2021/07/19 04:15:59;;;;;;;10.10;4.88;;;;;;;14.54;76.56;101932.03;5071832;28;20044;-50
2021/07/19 04:18:25;;;;;;;17.17;4.60;;;;;;;14.50;76.59;101930.91;5070228;28;20032;-48
2021/07/19 04:20:55;;;;;;;18.23;5.57;;;;;;;14.66;75.80;101931.97;5074244;28;20107;-49
2021/07/19 04:23:22;;;;;;;12.43;4.70;;;;;;;14.60;76.20;101928.38;5073381;28;20612;-50
2021/07/19 04:25:49;;;;;;;13.20;4.50;;;;;;;14.76;75.41;101929.44;5074139;28;20024;-50
2021/07/19 04:28:18;;;;;;;14.68;4.38;;;;;;;14.76;75.36;101930.25;5073444;28;20042;-48
2021/07/19 04:30:45;;;;;;;15.60;4.60;;;;;;;14.82;75.01;101931.94;5074335;28;20132;-49
2021/07/19 04:33:16;;;;;;;13.45;4.38;;;;;;;14.91;74.80;101926.16;5072474;28;20035;-49
2021/07/19 04:35:45;;;;;;;14.00;4.55;;;;;;;15.10;73.96;101925.59;5075025;28;20073;-51
2021/07/19 04:38:11;;;;;;;18.73;4.95;;;;;;;15.10;74.07;101924.78;5073055;28;20397;-52
2021/07/19 04:40:37;;;;;;;18.40;5.00;;;;;;;15.23;73.43;101932.50;5076492;28;20525;-49
2021/07/19 04:43:02;;;;;;;11.57;4.70;;;;;;;15.15;73.68;101937.53;5071464;28;20036;-50
2021/07/19 04:45:28;;;;;;;13.57;4.30;;;;;;;15.22;73.48;101935.44;5074994;28;20028;-50
2021/07/19 04:47:53;;;;;;;16.50;4.97;;;;;;;15.31;72.44;101934.78;5072702;28;20023;-49
2021/07/19 04:50:19;;;;;;;13.30;3.97;;;;;;;15.55;71.85;101940.75;5074312;28;20032;-49
2021/07/19 04:52:45;;;;;;;18.42;5.03;;;;;;;15.61;71.45;101938.94;5073163;28;20516;-49
2021/07/19 04:55:16;;;;;;;13.73;4.55;;;;;;;15.59;71.56;101935.69;5071672;28;20328;-49
2021/07/19 04:57:42;;;;;;;13.27;4.05;;;;;;;15.82;70.61;101935.41;5073977;28;20177;-50
2021/07/19 05:00:09;;;;;;;14.70;5.07;;;;;;;16.03;70.01;101944.53;5071360;28;20292;-50
2021/07/19 05:02:39;;;;;;;11.65;4.65;;;;;;;15.90;70.41;101945.75;5070356;28;20059;-52
2021/07/19 05:05:06;;;;;;;10.30;4.55;;;;;;;15.88;70.12;101950.59;5072617;28;20036;-52
2021/07/19 05:07:33;;;;;;;16.85;5.30;;;;;;;15.67;71.06;101943.34;5072684;28;20520;-49
2021/07/19 05:10:04;;;;;;;12.02;4.30;;;;;;;15.54;71.12;101939.09;5071343;28;20039;-49
2021/07/19 05:12:31;;;;;;;13.10;4.55;;;;;;;15.58;71.50;101950.22;5072078;28;20059;-50
2021/07/19 05:14:59;;;;;;;10.27;4.45;;;;;;;15.83;70.45;101947.84;5074098;28;20082;-49
2021/07/19 05:17:27;;;;;;;14.95;4.38;;;;;;;15.65;71.13;101950.91;5072790;28;20040;-49
2021/07/19 05:19:53;;;;;;;15.32;5.30;;;;;;;15.89;70.37;101951.41;5079301;28;20094;-50
2021/07/19 05:22:18;;;;;;;12.18;4.20;;;;;;;16.12;69.65;101950.28;5074050;28;20024;-51
2021/07/19 05:24:44;;;;;;;10.05;3.72;;;;;;;15.92;69.67;101950.91;5072806;28;20028;-50
2021/07/19 05:27:11;;;;;;;11.77;4.63;;;;;;;15.90;69.39;101953.88;5076229;28;20058;-49
2021/07/19 05:29:38;;;;;;;17.17;4.13;;;;;;;15.97;69.36;101953.66;5076686;28;20023;-49
2021/07/19 05:32:05;;;;;;;16.25;4.68;;;;;;;15.92;69.24;101950.91;5075345;28;20039;-49
2021/07/19 05:34:31;;;;;;;14.52;4.22;;;;;;;16.09;68.54;101950.81;5072670;28;20163;-49
2021/07/19 05:36:57;;;;;;;11.65;4.45;;;;;;;16.43;67.91;101944.09;5075501;28;20035;-50
2021/07/19 05:39:22;;;;;;;14.60;5.25;;;;;;;16.36;67.24;101946.22;5071202;28;20093;-49
2021/07/19 05:41:48;;;;;;;17.42;4.80;;;;;;;16.48;67.29;101944.13;5077956;28;20036;-49
2021/07/19 05:44:13;;;;;;;13.98;5.30;;;;;;;16.83;66.33;101942.78;5078320;28;20112;-49
2021/07/19 05:46:39;;;;;;;17.10;4.45;;;;;;;16.83;65.76;101935.47;5076039;28;20040;-49
2021/07/19 05:49:05;;;;;;;13.05;4.88;;;;;;;16.84;65.74;101936.31;5077735;28;20027;-50
2021/07/19 05:51:31;;;;;;;9.98;4.05;;;;;;;16.85;65.60;101943.34;5073300;28;20074;-51
2021/07/19 05:53:56;;;;;;;12.30;4.45;;;;;;;16.73;65.81;101940.84;5079392;28;20024;-50
2021/07/19 05:56:22;;;;;;;16.92;4.53;;;;;;;16.73;65.00;101950.84;5076197;28;20521;-49
2021/07/19 05:58:48;;;;;;;13.50;4.88;;;;;;;16.94;64.71;101938.28;5078427;28;20320;-49
2021/07/19 06:01:13;;;;;;;11.15;3.95;;;;;;;17.16;63.98;101947.06;5078530;28;20024;-50
2021/07/19 06:03:39;;;;;;;9.70;4.10;;;;;;;16.90;63.85;101946.91;5077566;28;20036;-49
2021/07/19 06:06:06;;;;;;;13.52;4.57;;;;;;;16.92;63.94;101949.34;5076963;28;20023;-50
2021/07/19 06:08:32;;;;;;;14.48;5.25;;;;;;;16.94;64.21;101947.19;5075401;28;20086;-51
2021/07/19 06:10:57;;;;;;;12.00;4.75;;;;;;;16.93;64.40;101940.16;5076872;28;20083;-50
2021/07/19 06:13:23;;;;;;;10.88;4.82;;;;;;;17.04;63.25;101936.41;5075944;28;20482;-50
2021/07/19 06:15:48;;;;;;;16.52;4.93;;;;;;;17.25;63.58;101941.97;5076938;28;20409;-52
2021/07/19 06:18:14;;;;;;;9.88;4.40;;;;;;;17.25;62.14;101948.19;5076666;28;20031;-50
2021/07/19 06:20:40;;;;;;;13.40;4.65;;;;;;;17.17;61.75;101943.25;5076284;28;20425;-49
2021/07/19 06:23:05;;;;;;;10.48;4.60;;;;;;;17.55;61.33;101947.50;5081547;28;20385;-50
2021/07/19 06:25:35;;;;;;;13.10;5.88;;;;;;;17.50;61.06;101948.28;5079343;28;20408;-50
2021/07/19 06:28:03;;;;;;;10.85;4.78;;;;;;;17.43;60.31;101947.75;5075182;28;20120;-49
2021/07/19 06:30:28;;;;;;;13.00;5.28;;;;;;;17.53;60.69;101955.06;5070983;28;20036;-50
2021/07/19 06:32:55;;;;;;;9.55;4.50;;;;;;;18.00;59.96;101951.47;5072363;28;20371;-49
2021/07/19 06:35:21;;;;;;;12.10;5.25;;;;;;;18.46;58.76;101956.91;5073664;28;20032;-51
2021/07/19 06:37:46;;;;;;;11.27;4.57;;;;;;;18.57;56.66;101951.22;5067272;28;20424;-51
2021/07/19 06:40:12;;;;;;;7.97;4.82;;;;;;;18.60;56.35;101956.09;5077671;28;20098;-49
2021/07/19 06:42:38;;;;;;;12.50;6.10;;;;;;;18.94;55.68;101956.38;5066952;28;20028;-50
2021/07/19 06:45:06;;;;;;;12.35;4.80;;;;;;;19.36;54.98;101952.44;5071486;28;20040;-53
2021/07/19 06:47:31;;;;;;;10.77;5.05;;;;;;;19.73;54.00;101948.50;5068355;28;20474;-51
2021/07/19 06:49:57;;;;;;;10.63;5.07;;;;;;;19.61;52.33;101941.50;5072889;28;20094;-50
2021/07/19 06:52:23;;;;;;;10.05;4.78;;;;;;;19.97;52.41;101944.00;5073068;28;20191;-50
2021/07/19 06:54:50;;;;;;;11.40;6.05;;;;;;;19.91;51.15;101942.41;5072244;28;20039;-52
2021/07/19 06:57:15;;;;;;;10.82;4.90;;;;;;;19.58;50.74;101933.91;5070194;28;20406;-50
2021/07/19 06:59:41;;;;;;;12.52;5.55;;;;;;;19.69;51.61;101931.09;5071758;28;20039;-52
2021/07/19 07:02:07;;;;;;;9.90;5.78;;;;;;;20.38;51.35;101927.38;5070921;28;20035;-52
2021/07/19 07:04:33;;;;;;;13.65;5.15;;;;;;;20.50;49.82;101930.56;5073777;28;20082;-51
2021/07/19 07:06:59;;;;;;;11.45;4.93;;;;;;;20.57;48.27;101933.75;5071547;28;20034;-50
2021/07/19 07:09:24;;;;;;;10.13;5.15;;;;;;;20.41;48.71;101943.16;5072974;28;20039;-53
2021/07/19 07:11:49;;;;;;;8.48;4.90;;;;;;;20.61;47.53;101929.34;5069380;28;20039;-52
2021/07/19 07:14:15;;;;;;;11.23;4.88;;;;;;;20.24;48.66;101940.81;5068512;28;20481;-54
2021/07/19 07:16:41;;;;;;;14.55;5.20;;;;;;;20.57;48.80;101933.75;5074112;28;20032;-51
2021/07/19 07:19:07;;;;;;;9.90;5.53;;;;;;;20.88;48.79;101933.47;5070420;28;20027;-52
2021/07/19 07:21:32;;;;;;;13.27;5.97;;;;;;;20.69;47.80;101928.75;5072927;28;20478;-51
2021/07/19 07:23:58;;;;;;;11.95;5.65;;;;;;;20.85;47.83;101936.78;5077997;28;20032;-49
2021/07/19 07:26:26;;;;;;;11.40;5.78;;;;;;;20.70;48.41;101930.38;5072404;28;20040;-50
2021/07/19 07:28:53;;;;;;;10.30;5.90;;;;;;;20.53;48.60;101930.00;5073543;28;20397;-51
2021/07/19 07:31:18;;;;;;;12.13;5.80;;;;;;;20.79;48.01;101925.91;5068727;28;20028;-52
2021/07/19 07:33:44;;;;;;;10.85;6.07;;;;;;;21.06;47.84;101919.91;5075386;28;20572;-50
2021/07/19 07:36:09;;;;;;;12.85;5.85;;;;;;;20.90;44.81;101920.38;5074587;28;20031;-51
2021/07/19 07:38:35;;;;;;;12.40;9.27;;;;;;;20.91;46.11;101913.81;5073585;28;20023;-52
2021/07/19 07:41:02;;;;;;;10.05;5.68;;;;;;;21.11;46.39;101919.03;5068788;28;20121;-50
2021/07/19 07:43:28;;;;;;;11.65;5.88;;;;;;;21.63;46.12;101920.03;5069142;28;20115;-50
2021/07/19 07:45:53;;;;;;;11.00;5.45;;;;;;;21.83;44.01;101921.66;5072837;28;20103;-51
2021/07/19 07:48:19;;;;;;;10.98;5.85;;;;;;;21.49;43.76;101914.50;5069448;28;20033;-49
2021/07/19 07:50:45;;;;;;;9.93;5.85;;;;;;;21.41;44.72;101913.25;5076074;28;20040;-53
2021/07/19 07:53:11;;;;;;;23.42;15.80;;;;;;;21.36;45.77;101910.59;5074012;28;20609;-53
2021/07/19 07:55:37;;;;;;;13.88;8.73;;;;;;;21.03;45.71;101911.50;5075446;28;20082;-52
2021/07/19 07:58:06;;;;;;;19.10;13.48;;;;;;;21.00;46.28;101917.50;5077488;28;20028;-51
2021/07/19 08:00:32;;;;;;;11.20;5.88;;;;;;;21.35;45.71;101911.66;5079848;28;20016;-52
2021/07/19 08:02:58;;;;;;;10.50;5.80;;;;;;;21.57;46.44;101907.59;5080956;28;20028;-52
2021/07/19 08:05:23;;;;;;;10.75;5.85;;;;;;;21.49;45.81;101909.03;5072506;28;20541;-49
2021/07/19 08:07:49;;;;;;;8.82;6.00;;;;;;;20.99;45.31;101899.53;5075215;28;20025;-50
2021/07/19 08:10:15;;;;;;;11.38;5.22;;;;;;;20.78;44.82;101893.50;5075926;28;20025;-52
2021/07/19 08:12:46;;;;;;;11.05;5.45;;;;;;;21.48;45.41;101901.16;5077697;28;20119;-51
2021/07/19 08:15:17;;;;;;;11.25;6.43;;;;;;;21.66;44.50;101916.72;5077910;28;20485;-51
2021/07/19 08:17:43;;;;;;;7.85;4.55;;;;;;;21.87;43.34;101900.88;5077590;28;20028;-54
2021/07/19 08:20:10;;;;;;;11.18;6.03;;;;;;;21.23;44.76;101915.91;5074607;28;20116;-52
2021/07/19 08:22:36;;;;;;;9.30;5.10;;;;;;;21.17;44.37;101917.06;5074549;28;20030;-54
2021/07/19 08:25:02;;;;;;;7.72;5.07;;;;;;;20.97;43.77;101916.19;5078778;28;20464;-51
2021/07/19 08:27:27;;;;;;;7.80;4.90;;;;;;;21.10;43.72;101901.88;5075606;28;20024;-51
2021/07/19 08:29:53;;;;;;;8.52;5.70;;;;;;;21.39;43.67;101915.47;5071869;28;20555;-53
2021/07/19 08:32:20;;;;;;;6.93;4.75;;;;;;;21.47;42.84;101913.16;5072847;28;20489;-51
2021/07/19 08:34:46;;;;;;;7.40;4.60;;;;;;;21.85;42.55;101914.81;5072502;28;20119;-52
2021/07/19 08:37:14;;;;;;;8.70;5.43;;;;;;;21.81;41.33;101916.50;5076062;28;20162;-53
2021/07/19 08:39:41;;;;;;;8.90;4.50;;;;;;;21.57;40.64;101922.03;5075849;28;20040;-52
2021/07/19 08:42:12;;;;;;;6.93;4.30;;;;;;;20.74;40.71;101925.97;5072798;28;20040;-51
2021/07/19 08:44:38;;;;;;;7.72;4.30;;;;;;;20.62;40.72;101922.81;5072679;28;20561;-54
2021/07/19 08:47:13;;;;;;;6.40;4.78;;;;;;;20.87;40.33;101918.22;5073369;28;20505;-52
2021/07/19 08:49:40;;;;;;;8.30;4.10;;;;;;;20.94;39.97;101908.59;5072037;28;20031;-51
2021/07/19 08:52:06;;;;;;;7.82;4.47;;;;;;;20.91;40.16;101909.19;5071702;28;20355;-51
2021/07/19 08:54:36;;;;;;;8.93;4.43;;;;;;;21.40;40.17;101911.63;5070761;28;20142;-53
2021/07/19 08:57:03;;;;;;;9.95;4.65;;;;;;;21.72;39.64;101915.53;5077930;28;20034;-54
2021/07/19 08:59:31;;;;;;;8.73;5.35;;;;;;;21.49;40.26;101913.69;5076771;28;20075;-51
2021/07/19 09:02:00;;;;;;;10.50;5.05;;;;;;;21.34;41.21;101920.13;5078746;28;20053;-52
2021/07/19 09:04:25;;;;;;;8.45;5.30;;;;;;;20.83;41.93;101922.63;5071897;28;20118;-51
2021/07/19 09:06:51;;;;;;;9.80;5.50;;;;;;;20.93;42.95;101925.25;5077265;28;20053;-54
2021/07/19 09:09:30;;;;;;;7.10;4.35;;;;;;;21.62;42.33;101923.88;5071283;28;20107;-55
2021/07/19 09:11:58;;;;;;;6.28;5.03;;;;;;;21.54;39.88;101921.78;5071993;28;20632;-52
2021/07/19 09:14:24;;;;;;;7.55;5.07;;;;;;;21.78;40.67;101916.28;5072128;28;20032;-51
2021/07/19 09:16:51;;;;;;;10.75;5.50;;;;;;;22.36;40.39;101905.03;5074565;28;20074;-51
2021/07/19 09:19:19;;;;;;;6.75;4.88;;;;;;;22.42;39.13;101903.81;5070748;28;20516;-52
2021/07/19 09:21:48;;;;;;;8.77;4.60;;;;;;;22.55;38.82;101909.31;5075190;28;20428;-52
2021/07/19 09:24:20;;;;;;;7.10;4.93;;;;;;;23.00;38.80;101904.16;5071900;28;20063;-61
2021/07/19 09:26:48;;;;;;;9.93;4.70;;;;;;;23.18;39.04;101908.69;5071936;28;20069;-53
2021/07/19 09:29:19;;;;;;;8.35;4.57;;;;;;;23.00;39.48;101906.88;5072164;28;20040;-55
2021/07/19 09:31:54;;;;;;;8.70;4.65;;;;;;;22.57;39.38;101903.56;5073035;28;20020;-55
2021/07/19 09:34:22;;;;;;;8.88;4.55;;;;;;;21.73;40.62;101905.47;5071508;28;20070;-54
2021/07/19 09:37:11;;;;;;;8.95;4.80;;;;;;;21.49;40.64;101905.50;5072063;28;20521;-56
2021/07/19 09:39:50;;;;;;;10.23;5.47;;;;;;;21.48;41.90;101909.34;5074086;28;20604;-54
2021/07/19 09:42:23;;;;;;;9.75;4.88;;;;;;;21.76;41.61;101900.22;5072164;28;20519;-54
2021/07/19 09:44:59;;;;;;;7.80;5.03;;;;;;;21.67;41.22;101915.63;5073084;28;20062;-53
2021/07/19 09:47:41;;;;;;;7.47;4.60;;;;;;;22.03;41.11;101908.53;5071326;28;20063;-55
2021/07/19 09:50:12;;;;;;;8.60;4.30;;;;;;;21.79;41.63;101902.34;5073899;28;20027;-55
2021/07/19 09:52:38;;;;;;;6.20;4.07;;;;;;;21.97;41.32;101907.00;5074284;28;20051;-54
2021/07/19 09:55:05;;;;;;;7.22;4.32;;;;;;;22.41;40.64;101903.00;5072078;28;20421;-54
2021/07/19 09:57:31;;;;;;;5.93;3.72;;;;;;;22.21;40.20;101906.09;5071746;28;20032;-54
2021/07/19 09:59:58;;;;;;;7.40;3.67;;;;;;;22.61;39.54;101901.84;5075628;28;20017;-56
2021/07/19 10:02:52;;;;;;;7.47;4.07;;;;;;;21.84;39.72;101907.72;5070474;28;20271;-56
2021/07/19 10:05:29;;;;;;;7.65;4.53;;;;;;;22.42;40.32;101903.81;5073722;28;20093;-54
2021/07/19 10:07:59;;;;;;;8.25;4.47;;;;;;;23.13;39.21;101903.31;5068913;28;20025;-55
2021/07/19 10:10:37;;;;;;;7.32;4.20;;;;;;;22.46;38.93;101907.59;5069337;28;20024;-52
2021/07/19 10:13:05;;;;;;;7.38;3.97;;;;;;;22.79;39.35;101902.88;5070887;28;20453;-55
2021/07/19 10:15:31;;;;;;;9.02;3.92;;;;;;;22.13;38.55;101899.41;5069121;28;20466;-52
2021/07/19 10:17:59;;;;;;;6.43;4.15;;;;;;;22.72;38.81;101891.53;5070701;28;20035;-56
2021/07/19 10:20:25;;;;;;;6.90;3.67;;;;;;;22.78;37.19;101909.44;5071987;28;20016;-55
2021/07/19 10:22:51;;;;;;;5.80;3.35;;;;;;;21.78;38.20;101900.75;5071483;28;20081;-57
2021/07/19 10:25:18;;;;;;;10.48;6.13;;;;;;;21.92;38.31;101906.25;5070415;28;20110;-55
2021/07/19 10:27:45;;;;;;;6.80;3.42;;;;;;;22.45;38.44;101906.78;5085309;28;20030;-56
2021/07/19 10:30:12;;;;;;;8.98;4.10;;;;;;;22.79;37.73;101903.69;5067008;28;20124;-57
2021/07/19 10:32:38;;;;;;;30.92;18.48;;;;;;;23.24;37.98;101897.66;5069509;28;20038;-56
2021/07/19 10:35:06;;;;;;;12.35;8.10;;;;;;;23.67;37.72;101909.84;5069644;28;20616;-54
2021/07/19 10:37:44;;;;;;;8.15;4.10;;;;;;;23.78;36.49;101907.69;5071425;28;20506;-54
2021/07/19 10:40:16;;;;;;;6.63;3.45;;;;;;;23.25;36.10;101904.72;5071905;28;20013;-56
2021/07/19 10:42:43;;;;;;;31.02;18.73;;;;;;;23.96;36.61;101903.16;5071609;28;20573;-56
2021/07/19 10:45:14;;;;;;;7.18;3.75;;;;;;;23.35;36.87;101910.00;5068932;28;20708;-56
2021/07/19 10:47:53;;;;;;;5.20;3.58;;;;;;;23.49;36.57;101894.34;5067703;28;20049;-55
2021/07/19 10:50:27;;;;;;;5.10;3.20;;;;;;;23.00;36.15;101904.16;5067656;28;20058;-55
2021/07/19 10:53:01;;;;;;;5.20;3.22;;;;;;;23.12;36.11;101895.41;5075143;28;20081;-55
2021/07/19 10:55:32;;;;;;;7.15;3.13;;;;;;;23.52;36.66;101891.03;5071282;28;20029;-55
2021/07/19 10:58:14;;;;;;;6.28;3.83;;;;;;;24.53;36.70;101887.78;5067483;28;20086;-53
2021/07/19 11:00:45;;;;;;;4.95;3.15;;;;;;;25.21;35.69;101889.19;5067952;28;20012;-54
2021/07/19 11:03:13;;;;;;;5.45;3.40;;;;;;;25.61;34.61;101895.34;5067828;28;20119;-54
2021/07/19 11:05:41;;;;;;;5.85;3.15;;;;;;;25.31;33.20;101896.28;5070567;28;20036;-56
2021/07/19 11:08:19;;;;;;;4.43;2.90;;;;;;;24.27;33.40;101903.22;5069072;28;20022;-52
2021/07/19 11:10:46;;;;;;;5.38;2.95;;;;;;;24.57;34.20;101901.63;5071785;28;20024;-55
2021/07/19 11:13:23;;;;;;;8.70;2.92;;;;;;;23.91;34.35;101901.38;5071714;28;20044;-53
2021/07/19 11:15:51;;;;;;;6.75;3.70;;;;;;;23.33;35.82;101895.78;5071359;28;20613;-55
2021/07/19 11:18:29;;;;;;;4.93;3.13;;;;;;;22.31;38.56;101904.00;5070452;28;20032;-55
2021/07/19 11:20:58;;;;;;;6.80;2.40;;;;;;;22.61;39.35;101902.66;5068846;28;20563;-52
2021/07/19 11:23:30;;;;;;;7.45;2.70;;;;;;;23.07;38.79;101899.06;5074821;28;20024;-54